Norden, CA

2:14 PM PST on January 19, 2017 (GMT -0800)
Soda Springs Ski Area | | Change Station
Active Advisory: Winter Storm Warning

Elev 6781 ft 39.32 °N, 120.38 °W | Updated 24 minutes ago

Snow
Snow
29.2 °F
Feels Like 29 °F
N
0.0
Wind Variable Wind from NNE

Today
High -- | Low -- °F
--% Chance of Precip.
Yesterday
High -- | Low -- °F
Precip. -- in
Pressure 29.72 in
Visibility 10.0 miles
Clouds Scattered Clouds 2700 ft
Mostly Cloudy 3500 ft
Overcast 4600 ft
Windchill 29 °F
Dew Point 26 °F
Humidity 91%
Rainfall 1.12 in
Snow Depth Not available.
7:17 AM 5:07 PM
Waning Gibbous, 50% visible
METAR KTRK 192145Z 00000KT 10SM SCT027 BKN035 OVC046 00/M05 A2972 RMK NOSPECI
Pressure 29.72 in
Visibility 10.0 miles
Clouds Scattered Clouds 2700 ft
Mostly Cloudy 3500 ft
Overcast 4600 ft
Windchill 29 °F
Dew Point 26 °F
Humidity 91%
Rainfall 1.12 in
Snow Depth Not available.
7:17 AM 5:07 PM
Waning Gibbous, 50% visible
METAR KTRK 192145Z 00000KT 10SM SCT027 BKN035 OVC046 00/M05 A2972 RMK NOSPECI

Get Your Daily Forecast Email!

Thanks for signing up!

Be on the lookout for a verification email in your inbox.

You'll start receiving the daily forecast at 8 AM.

×

10-Day Weather Forecast

Almanac

Astronomy

Jan. 19, 2017 Rise Set
Actual Time
Civil Twilight
Nautical Twilight
Astronomical Twilight
Moon
Length of Visible Light
Length of Day
Tomorrow will be .
, % of the Moon is Illuminated

Today's Extremes

State Highs State Lows

Community

WunderPhotos

Upload Photos

1,962,540 photos uploaded!

WunderBlog® & News

Nearby

Air Quality

  Air Quality AQ Index Pollutant
Not available.

Snow Depth

Station Depth Elevation

Earthquake Activity

City Distance Mag. Time & Date
Minimum magnitude displayed is 2.5.

Coastal Water Temperatures

Place Temperature

Stations

Nearby Weather Stations

Station Location Temp. Windchill Dew Point Humidity Wind Precip. Elev Updated Type
                   

Watches & Warnings

Winter Storm Warning
Issued: 11:19 AM PST Jan. 19, 2017 – National Weather Service

... Winter Storm Warning now in effect until 10 am PST Saturday...

* timing... periods of snow through Saturday morning with heaviest
snow and gusty winds Friday through Saturday morning.

* Locations... Lassen park... Interstate 80 over Donner Pass...
Highway 50 over Echo Summit... Highway 88 over Carson Pass.

* Snow accumulations... 1 to 3 feet of snow above 4000 feet with up
to 4 feet at the higher elevations.

* Main impact... slippery snow covered roads with chain controls
likely. White out conditions at times with gusty winds
especially Friday.

Precautionary/preparedness actions...

A Winter Storm Warning for heavy snow means severe winter weather
conditions are expected or occurring. Significant amounts of snow
are forecast that will make travel dangerous. Only travel in an
emergency. If you must travel, keep an extra flashlight, food, and
water in your vehicle in case of an emergency.